Airfield :
LOGIN :

Register | Disclaimer

   EN    FR    IT 

 










Legend :    VFR   Marginal VFR   IFR   Intensive IFR   Very Intensive IFR
Visi :
Ceiling :
>= 8 km
>= 3000ft
5 to 8 km
1000 to 3000 ft
1500m to 5 km
500 to 1000 ft
800 to 1500m
200 to 500 ft
< 800m
< 200 ft
Symbols :   Thunderstorms  Fog  Heavy snow  Heavy precipitations  Wind > 20 kt
SIGMETs :     Misc.  Thunderstorms  Icing  Turbulence  Mountain Waves  Volcanic Ashes







- Airport Elevation : 138 ft
- IATA code : RLG


ETNL - Rostock Laage

CURRENT METAR :
  • 231338Z 16004KT 1500 R09/2800N BR OVC002 01/01 Q1020 AMB YLO TEMPO AMB

EXPIRED METARs :
  • 231320Z 18005KT 1800 R09/3200N BR OVC002 01/01 Q1020 AMB YLO TEMPO AMB
  • 231250Z 17006KT 2000 BR OVC002 01/00 Q1020 AMB YLO TEMPO AMB
  • 231235Z 18006KT 2000 BR OVC003 01/00 Q1020 YLO YLO TEMPO AMB
  • 231220Z 17006KT 1500 R09/2500N BR OVC002 01/00 Q1020 AMB YLO TEMPO AMB
  • 231128Z 16004KT 2500 -DZ BR OVC003 00/M00 Q1020 YLO YLO TEMPO AMB
  • 231120Z 16005KT 3500 -DZ BR OVC004 00/M01 Q1020 YLO YLO TEMPO AMB

TAF TAF ETNL
Valid from the 23 at 12:00 until the 23 at 21:00 UTC


231120Z 2312/2321 18005KT 5000 BR FEW002 BKN006
TEMPO 2312/2321 20003KT 1000 BR BKN002
PROB30 2312/2321 VRB02KT 0500 FG BKN001 BY ETGL
No reported NOTAMs for that airfield.



MET'MAP, your aeronautical weather chart ! - Copyright ORBIFLY December 2007 - Disclaimer

ORBIFLY MET'MAP TEAM :

Programming & Development : Alexandra Zaïnal
Concept & Development : Baudouin d'Aumeries
Co-Development & Prog : Marc-Olivier Méhu
Technical & hardware support : Manuel Goepfert

Contact : metmap@orbifly.com




SOURCES & CREDITS :

   NOAA